createdAt,value
2022-12-13T00:02:01.831Z,4.73
2022-12-13T00:07:05.066Z,4.40
2022-12-13T00:12:08.438Z,4.93
2022-12-13T00:17:12.731Z,5.47
2022-12-13T00:22:16.801Z,5.73
2022-12-13T00:27:19.735Z,8.07
2022-12-13T00:32:24.749Z,5.87
2022-12-13T00:37:27.713Z,4.77
2022-12-13T00:42:30.648Z,3.80
2022-12-13T00:47:34.977Z,3.77
2022-12-13T00:52:38.167Z,3.37
2022-12-13T00:57:41.092Z,2.97
2022-12-13T01:02:46.011Z,4.70
2022-12-13T01:07:49.057Z,2.40
2022-12-13T01:12:52.017Z,3.43
2022-12-13T01:17:56.418Z,3.27
2022-12-13T01:22:59.378Z,4.17
2022-12-13T01:28:02.454Z,4.10
2022-12-13T01:33:14.447Z,3.97
2022-12-13T01:38:18.624Z,3.63
2022-12-13T01:43:21.651Z,3.33
2022-12-13T01:48:28.618Z,3.80
2022-12-13T01:53:34.848Z,4.53
2022-12-13T01:58:38.963Z,3.53
2022-12-13T02:03:43.930Z,3.93
2022-12-13T02:08:47.783Z,4.53
2022-12-13T02:13:50.761Z,3.63
2022-12-13T02:19:16.413Z,3.83
2022-12-13T02:24:46.791Z,2.97
2022-12-13T02:30:26.879Z,2.90
2022-12-13T02:35:39.711Z,3.73
2022-12-13T02:40:47.262Z,3.33
2022-12-13T02:45:54.442Z,2.93
2022-12-13T02:50:59.761Z,2.97
2022-12-13T02:56:02.827Z,3.07
2022-12-13T03:01:27.655Z,3.13
2022-12-13T03:06:41.059Z,3.53
2022-12-13T03:12:14.505Z,3.37
2022-12-13T03:17:21.611Z,3.10
2022-12-13T03:22:24.780Z,3.50
2022-12-13T03:27:28.281Z,2.57
2022-12-13T03:39:24.157Z,4.33
2022-12-13T03:44:31.395Z,3.40
2022-12-13T03:49:35.789Z,3.10
2022-12-13T03:54:40.214Z,3.17
2022-12-13T03:59:48.346Z,3.23
2022-12-13T04:04:51.357Z,3.23
2022-12-13T04:09:55.844Z,2.83
2022-12-13T04:14:58.753Z,2.77
2022-12-13T04:20:01.686Z,3.00
2022-12-13T04:25:06.788Z,3.10
2022-12-13T04:30:10.834Z,2.87
2022-12-13T04:35:14.095Z,3.40
2022-12-13T04:40:21.864Z,3.47
2022-12-13T04:45:25.486Z,3.40
2022-12-13T04:50:28.838Z,3.33
2022-12-13T04:55:33.155Z,3.60
2022-12-13T05:00:36.305Z,3.43
2022-12-13T05:05:40.563Z,3.10
2022-12-13T05:10:44.988Z,2.67
2022-12-13T05:15:52.170Z,2.90
2022-12-13T05:20:58.324Z,3.27
2022-12-13T05:26:02.888Z,3.60
2022-12-13T05:37:34.851Z,2.87
2022-12-13T05:42:39.942Z,3.27
2022-12-13T05:47:42.952Z,2.93
2022-12-13T05:52:46.550Z,2.90
2022-12-13T05:57:51.318Z,3.30
2022-12-13T06:02:54.886Z,3.63
2022-12-13T06:07:59.037Z,3.20
2022-12-13T06:13:21.150Z,2.40
2022-12-13T06:18:26.703Z,3.17
2022-12-13T06:23:31.759Z,2.97
2022-12-13T06:28:36.707Z,3.50
2022-12-13T06:33:40.031Z,5.23
2022-12-13T06:38:43.513Z,3.57
2022-12-13T06:43:49.301Z,2.77
2022-12-13T06:48:53.161Z,2.57
2022-12-13T06:53:56.403Z,2.73
2022-12-13T06:59:05.182Z,3.10
2022-12-13T07:04:29.957Z,2.53
2022-12-13T07:09:32.548Z,2.47
2022-12-13T07:14:40.623Z,2.83
2022-12-13T07:19:45.120Z,3.43
2022-12-13T07:24:48.508Z,3.57
2022-12-13T07:29:52.813Z,3.17
2022-12-13T07:34:56.035Z,4.47
2022-12-13T07:40:04.051Z,3.70
2022-12-13T07:45:10.608Z,3.93
2022-12-13T07:50:24.816Z,5.03
2022-12-13T07:55:33.407Z,5.43
2022-12-13T08:00:40.981Z,6.40
2022-12-13T08:05:49.478Z,5.53
2022-12-13T08:11:03.175Z,5.83
2022-12-13T08:16:26.404Z,3.93
2022-12-13T08:27:00.979Z,3.97
2022-12-13T08:32:09.184Z,3.27
2022-12-13T08:37:12.433Z,3.33
2022-12-13T08:42:19.208Z,3.23
2022-12-13T08:47:26.951Z,3.53
2022-12-13T08:52:30.470Z,3.27
2022-12-13T08:57:36.516Z,2.50
2022-12-13T09:02:40.991Z,3.57
2022-12-13T09:07:44.143Z,4.10
2022-12-13T09:12:47.971Z,3.60
2022-12-13T09:17:52.988Z,3.83
2022-12-13T09:23:01.638Z,3.33
2022-12-13T09:28:07.635Z,4.07
2022-12-13T09:33:28.151Z,3.53
2022-12-13T09:38:33.440Z,3.53
2022-12-13T09:43:43.196Z,4.43
2022-12-13T09:48:48.917Z,2.93
2022-12-13T09:53:54.053Z,3.63
2022-12-13T09:58:58.716Z,3.23
2022-12-13T10:04:03.027Z,2.73
2022-12-13T10:09:09.430Z,3.87
2022-12-13T10:14:18.109Z,4.00
2022-12-13T10:19:30.068Z,3.23
2022-12-13T10:24:50.776Z,3.43
2022-12-13T10:30:06.719Z,4.33
2022-12-13T10:35:29.048Z,3.73
2022-12-13T10:40:34.176Z,3.27
2022-12-13T10:45:37.544Z,3.50
2022-12-13T10:50:42.103Z,3.50
2022-12-13T10:55:45.471Z,3.90
2022-12-13T11:00:49.375Z,3.10
2022-12-13T11:06:04.524Z,3.27
2022-12-13T11:11:09.245Z,2.80
2022-12-13T11:16:23.958Z,3.40
2022-12-13T11:21:30.961Z,3.90
2022-12-13T11:26:37.395Z,3.17
2022-12-13T11:31:49.841Z,3.57
2022-12-13T11:37:02.519Z,3.43
2022-12-13T11:42:11.961Z,3.60
2022-12-13T11:47:20.805Z,3.13
2022-12-13T11:52:31.098Z,4.03
2022-12-13T11:57:44.030Z,4.27
2022-12-13T12:02:52.077Z,4.10
2022-12-13T12:08:43.625Z,4.87
2022-12-13T12:13:29.577Z,7.33
2022-12-13T12:18:33.236Z,6.17
2022-12-13T12:23:54.689Z,6.63
2022-12-13T12:29:19.793Z,6.27
2022-12-13T12:34:36.232Z,5.90
2022-12-13T12:39:57.758Z,5.50
2022-12-13T12:45:26.999Z,6.57
2022-12-13T12:50:43.338Z,4.60
2022-12-13T12:55:55.419Z,4.23
2022-12-13T13:01:14.714Z,4.70
2022-12-13T13:06:22.177Z,3.53
2022-12-13T13:11:28.990Z,4.37
2022-12-13T13:16:35.541Z,4.93
2022-12-13T13:21:48.606Z,3.83
2022-12-13T13:26:55.276Z,3.90
2022-12-13T13:32:02.178Z,2.77
2022-12-13T13:37:29.978Z,2.37
2022-12-13T13:42:34.488Z,2.57
2022-12-13T13:47:42.826Z,3.03
2022-12-13T13:53:00.626Z,2.60
2022-12-13T13:58:49.754Z,2.80
2022-12-13T14:04:14.079Z,2.80
2022-12-13T14:09:39.024Z,2.80
2022-12-13T14:15:17.629Z,2.67
2022-12-13T14:20:45.461Z,2.20
2022-12-13T14:26:18.953Z,2.43
2022-12-13T14:31:26.245Z,2.10
2022-12-13T14:36:32.312Z,2.63
2022-12-13T14:41:45.858Z,3.00
2022-12-13T14:46:56.276Z,3.17
2022-12-13T14:52:04.093Z,3.27
2022-12-13T14:57:07.158Z,3.70
2022-12-13T15:02:31.211Z,3.60
2022-12-13T15:07:38.058Z,3.67
2022-12-13T15:12:43.331Z,3.27
2022-12-13T15:17:47.712Z,2.87
2022-12-13T15:23:01.486Z,2.90
2022-12-13T15:28:07.883Z,3.50
2022-12-13T15:33:20.745Z,3.13
2022-12-13T15:38:28.513Z,3.23
2022-12-13T15:43:37.303Z,2.93
2022-12-13T15:48:48.641Z,3.20
2022-12-13T15:54:05.191Z,2.90
2022-12-13T15:59:26.084Z,2.80
2022-12-13T16:04:32.978Z,2.43
2022-12-13T16:09:38.258Z,3.20
2022-12-13T16:14:48.798Z,3.07
2022-12-13T16:19:55.191Z,3.60
2022-12-13T16:24:59.493Z,2.97
2022-12-13T16:30:02.477Z,3.10
2022-12-13T16:35:07.904Z,3.07
2022-12-13T16:40:26.270Z,3.00
2022-12-13T16:45:41.658Z,3.33
2022-12-13T16:50:48.253Z,2.90
2022-12-13T16:56:00.974Z,3.13
2022-12-13T17:01:09.686Z,3.00
2022-12-13T17:06:17.749Z,3.60
2022-12-13T17:11:20.725Z,2.93
2022-12-13T17:16:23.755Z,3.67
2022-12-13T17:21:29.671Z,3.27
2022-12-13T17:26:32.790Z,4.53
2022-12-13T17:31:36.455Z,3.77
2022-12-13T17:36:40.856Z,3.77
2022-12-13T17:41:43.831Z,3.00
2022-12-13T17:46:57.907Z,3.33
2022-12-13T17:52:02.877Z,3.13
2022-12-13T17:57:06.032Z,2.80
2022-12-13T18:02:13.505Z,3.70
2022-12-13T18:07:17.936Z,3.83
2022-12-13T18:12:20.925Z,4.37
2022-12-13T18:17:46.669Z,3.67
2022-12-13T18:22:51.521Z,3.87
2022-12-13T18:28:00.839Z,3.80
2022-12-13T18:33:05.505Z,3.37
2022-12-13T18:38:10.503Z,3.57
2022-12-13T18:43:13.511Z,4.27
2022-12-13T18:48:17.327Z,3.97
2022-12-13T18:53:23.316Z,3.67
2022-12-13T18:58:26.751Z,3.60
2022-12-13T19:03:30.201Z,3.60
2022-12-13T19:08:36.499Z,3.67
2022-12-13T19:13:39.630Z,4.37
2022-12-13T19:18:42.605Z,3.07
2022-12-13T19:23:54.909Z,3.77
2022-12-13T19:29:02.073Z,3.50
2022-12-13T19:34:05.360Z,3.37
2022-12-13T19:39:12.303Z,3.97
2022-12-13T19:44:15.291Z,3.43
2022-12-13T19:49:21.030Z,3.67
2022-12-13T19:54:26.591Z,3.07
2022-12-13T19:59:29.557Z,3.37
2022-12-13T20:04:33.028Z,2.83
2022-12-13T20:09:39.738Z,2.87
2022-12-13T20:14:43.125Z,3.10
2022-12-13T20:19:46.026Z,3.40
2022-12-13T20:24:50.361Z,2.80
2022-12-13T20:29:53.483Z,3.17
2022-12-13T20:34:56.655Z,2.53
2022-12-13T20:40:01.276Z,3.40
2022-12-13T20:45:04.477Z,3.00
2022-12-13T20:50:09.067Z,3.13
2022-12-13T20:55:13.794Z,3.20
2022-12-13T21:00:18.457Z,2.70
2022-12-13T21:05:21.449Z,3.23
2022-12-13T21:10:25.779Z,3.23
2022-12-13T21:15:28.711Z,2.73
2022-12-13T21:20:31.807Z,3.57
2022-12-13T21:25:36.202Z,3.67
2022-12-13T21:30:39.118Z,3.10
2022-12-13T21:35:42.104Z,3.13
2022-12-13T21:40:48.009Z,2.33
2022-12-13T21:45:51.191Z,2.60
2022-12-13T21:50:54.155Z,2.67
2022-12-13T21:56:12.612Z,3.00
2022-12-13T22:01:15.649Z,3.40
2022-12-13T22:06:18.670Z,3.27
2022-12-13T22:11:23.006Z,3.43
2022-12-13T22:16:26.806Z,3.47
2022-12-13T22:21:29.939Z,3.50
2022-12-13T22:26:34.239Z,4.33
2022-12-13T22:31:37.199Z,3.80
2022-12-13T22:36:40.196Z,3.70
2022-12-13T22:41:45.877Z,3.23
2022-12-13T22:46:48.999Z,3.40
2022-12-13T22:51:51.933Z,3.13
2022-12-13T22:56:56.278Z,3.00
2022-12-13T23:02:02.587Z,3.60
2022-12-13T23:07:08.466Z,3.83
2022-12-13T23:12:31.047Z,2.23
2022-12-13T23:17:34.372Z,3.47
2022-12-13T23:22:37.623Z,3.20
2022-12-13T23:27:41.936Z,3.67
2022-12-13T23:32:53.825Z,2.80
2022-12-13T23:37:56.872Z,2.70
2022-12-13T23:43:01.206Z,3.43
2022-12-13T23:48:04.266Z,3.30
2022-12-13T23:53:07.223Z,4.20
2022-12-13T23:58:11.608Z,4.10
